Barauna, Brazil
Current Conditions -  °F | °C
As of 12:00 AM on Monday 22 Dec 2014 (Local Time) from SBFZ Reporting Station
Scattered Clouds Scattered Clouds  
Wind Chill: 81°   Ceiling: Unl
Heat Index: 83°   Visibility: 6mi
Dew Point: 68°   Wind: 16mph
Humidity: 65%   Direction: 90°E
Pressure: 29.88"   Gusts: NA
Location:  5.08°S, 37.61°W
Report Text: SBFZ 220300Z 09014KT 9999 SCT020 27/20 Q1012
Loading
Personal Weather Stations






























Interactive Weather Map New forecast layout! Learn more

10-Day Weather Forecast

Advertisements
Track Severe Weather on mobile